sensor_id;sensor_type;location;lat;lon;timestamp;P1;durP1;ratioP1;P2;durP2;ratioP2
4428;SDS011;2227;47.810;8.810;2023-06-22T03:50:18;10.32;;;5.65;;
4428;SDS011;2227;47.810;8.810;2023-06-22T03:52:46;9.95;;;5.32;;
4428;SDS011;2227;47.810;8.810;2023-06-22T03:55:13;12.77;;;5.93;;
4428;SDS011;2227;47.810;8.810;2023-06-22T03:57:40;10.68;;;5.75;;
4428;SDS011;2227;47.810;8.810;2023-06-22T04:00:07;12.20;;;5.50;;
4428;SDS011;2227;47.810;8.810;2023-06-22T04:02:34;9.90;;;5.63;;
4428;SDS011;2227;47.810;8.810;2023-06-22T04:05:01;9.60;;;5.88;;
4428;SDS011;2227;47.810;8.810;2023-06-22T04:07:30;10.23;;;5.60;;
4428;SDS011;2227;47.810;8.810;2023-06-22T04:09:57;10.50;;;5.57;;
4428;SDS011;2227;47.810;8.810;2023-06-22T04:12:23;10.38;;;5.45;;
4428;SDS011;2227;47.810;8.810;2023-06-22T04:14:50;8.52;;;5.82;;
4428;SDS011;2227;47.810;8.810;2023-06-22T04:17:17;12.73;;;6.20;;
4428;SDS011;2227;47.810;8.810;2023-06-22T04:19:45;10.30;;;5.65;;
4428;SDS011;2227;47.810;8.810;2023-06-22T04:22:12;11.95;;;5.38;;
4428;SDS011;2227;47.810;8.810;2023-06-22T04:24:39;9.70;;;5.60;;
4428;SDS011;2227;47.810;8.810;2023-06-22T04:27:05;11.00;;;5.55;;
4428;SDS011;2227;47.810;8.810;2023-06-22T04:29:32;11.48;;;5.75;;
4428;SDS011;2227;47.810;8.810;2023-06-22T04:31:59;10.68;;;5.50;;
4428;SDS011;2227;47.810;8.810;2023-06-22T04:34:29;8.65;;;5.50;;
4428;SDS011;2227;47.810;8.810;2023-06-22T04:36:56;10.25;;;5.50;;
4428;SDS011;2227;47.810;8.810;2023-06-22T04:39:23;14.25;;;6.05;;
4428;SDS011;2227;47.810;8.810;2023-06-22T04:41:50;10.65;;;5.90;;
4428;SDS011;2227;47.810;8.810;2023-06-22T04:44:18;13.32;;;5.75;;
4428;SDS011;2227;47.810;8.810;2023-06-22T04:46:51;12.00;;;6.15;;
4428;SDS011;2227;47.810;8.810;2023-06-22T04:49:35;10.60;;;6.60;;
4428;SDS011;2227;47.810;8.810;2023-06-22T04:52:07;11.33;;;5.80;;
4428;SDS011;2227;47.810;8.810;2023-06-22T04:54:35;10.57;;;5.72;;
4428;SDS011;2227;47.810;8.810;2023-06-22T04:57:04;11.82;;;5.75;;
4428;SDS011;2227;47.810;8.810;2023-06-22T04:59:36;12.80;;;6.35;;
4428;SDS011;2227;47.810;8.810;2023-06-22T05:02:05;9.90;;;5.40;;
4428;SDS011;2227;47.810;8.810;2023-06-22T05:04:32;10.65;;;5.53;;
4428;SDS011;2227;47.810;8.810;2023-06-22T05:06:59;9.57;;;5.43;;
4428;SDS011;2227;47.810;8.810;2023-06-22T05:09:26;10.38;;;5.20;;
4428;SDS011;2227;47.810;8.810;2023-06-22T05:11:53;9.20;;;5.15;;
4428;SDS011;2227;47.810;8.810;2023-06-22T05:14:20;9.30;;;5.47;;
4428;SDS011;2227;47.810;8.810;2023-06-22T05:16:48;11.73;;;5.47;;
4428;SDS011;2227;47.810;8.810;2023-06-22T05:19:15;9.45;;;5.55;;
4428;SDS011;2227;47.810;8.810;2023-06-22T05:21:42;9.00;;;5.30;;
4428;SDS011;2227;47.810;8.810;2023-06-22T05:24:09;11.68;;;5.82;;
4428;SDS011;2227;47.810;8.810;2023-06-22T05:26:36;9.30;;;5.30;;
4428;SDS011;2227;47.810;8.810;2023-06-22T05:29:20;10.23;;;5.45;;
4428;SDS011;2227;47.810;8.810;2023-06-22T05:31:48;8.98;;;5.22;;
4428;SDS011;2227;47.810;8.810;2023-06-22T05:34:33;7.47;;;4.90;;
4428;SDS011;2227;47.810;8.810;2023-06-22T05:37:00;9.40;;;5.50;;
4428;SDS011;2227;47.810;8.810;2023-06-22T05:39:27;10.80;;;5.65;;
4428;SDS011;2227;47.810;8.810;2023-06-22T05:41:54;8.30;;;5.50;;
4428;SDS011;2227;47.810;8.810;2023-06-22T05:44:21;8.18;;;5.13;;
4428;SDS011;2227;47.810;8.810;2023-06-22T05:46:47;10.50;;;5.55;;
4428;SDS011;2227;47.810;8.810;2023-06-22T05:49:14;9.45;;;5.22;;
4428;SDS011;2227;47.810;8.810;2023-06-22T05:51:41;9.20;;;5.50;;
4428;SDS011;2227;47.810;8.810;2023-06-22T05:54:09;8.75;;;5.47;;
4428;SDS011;2227;47.810;8.810;2023-06-22T05:56:36;8.02;;;4.47;;
4428;SDS011;2227;47.810;8.810;2023-06-22T05:59:03;10.10;;;5.20;;
4428;SDS011;2227;47.810;8.810;2023-06-22T06:01:30;10.25;;;5.50;;
4428;SDS011;2227;47.810;8.810;2023-06-22T06:04:02;10.65;;;5.22;;
4428;SDS011;2227;47.810;8.810;2023-06-22T06:06:30;13.73;;;5.32;;
4428;SDS011;2227;47.810;8.810;2023-06-22T06:08:57;8.88;;;5.38;;
4428;SDS011;2227;47.810;8.810;2023-06-22T06:11:25;9.07;;;5.20;;
4428;SDS011;2227;47.810;8.810;2023-06-22T06:13:52;9.43;;;5.47;;
4428;SDS011;2227;47.810;8.810;2023-06-22T06:16:19;12.68;;;6.10;;
4428;SDS011;2227;47.810;8.810;2023-06-22T06:18:46;8.23;;;5.07;;
4428;SDS011;2227;47.810;8.810;2023-06-22T06:21:14;10.32;;;5.65;;
4428;SDS011;2227;47.810;8.810;2023-06-22T06:23:41;10.15;;;5.28;;
4428;SDS011;2227;47.810;8.810;2023-06-22T06:26:08;9.13;;;5.10;;
4428;SDS011;2227;47.810;8.810;2023-06-22T06:28:35;11.02;;;5.65;;
4428;SDS011;2227;47.810;8.810;2023-06-22T06:31:02;8.73;;;4.80;;
4428;SDS011;2227;47.810;8.810;2023-06-22T06:33:33;11.30;;;5.13;;
4428;SDS011;2227;47.810;8.810;2023-06-22T06:36:00;6.85;;;4.65;;
4428;SDS011;2227;47.810;8.810;2023-06-22T06:38:33;11.55;;;5.63;;
4428;SDS011;2227;47.810;8.810;2023-06-22T06:40:59;8.80;;;5.10;;
4428;SDS011;2227;47.810;8.810;2023-06-22T06:43:26;9.43;;;5.40;;
4428;SDS011;2227;47.810;8.810;2023-06-22T06:45:53;8.98;;;4.85;;
4428;SDS011;2227;47.810;8.810;2023-06-22T06:48:19;12.65;;;5.55;;
4428;SDS011;2227;47.810;8.810;2023-06-22T06:50:46;8.75;;;4.80;;
4428;SDS011;2227;47.810;8.810;2023-06-22T06:53:13;11.77;;;5.50;;
4428;SDS011;2227;47.810;8.810;2023-06-22T06:55:40;10.30;;;5.45;;
4428;SDS011;2227;47.810;8.810;2023-06-22T06:58:07;9.88;;;5.75;;
4428;SDS011;2227;47.810;8.810;2023-06-22T07:00:36;9.20;;;5.47;;
4428;SDS011;2227;47.810;8.810;2023-06-22T07:03:03;9.60;;;5.10;;
4428;SDS011;2227;47.810;8.810;2023-06-22T07:05:30;10.38;;;5.50;;
4428;SDS011;2227;47.810;8.810;2023-06-22T07:07:57;10.95;;;5.65;;
4428;SDS011;2227;47.810;8.810;2023-06-22T07:10:23;9.77;;;5.25;;
4428;SDS011;2227;47.810;8.810;2023-06-22T07:12:50;9.32;;;4.63;;
4428;SDS011;2227;47.810;8.810;2023-06-22T07:15:17;7.15;;;5.25;;
4428;SDS011;2227;47.810;8.810;2023-06-22T07:17:44;10.82;;;5.68;;
4428;SDS011;2227;47.810;8.810;2023-06-22T07:20:11;10.45;;;5.78;;
4428;SDS011;2227;47.810;8.810;2023-06-22T07:22:39;8.93;;;5.57;;
4428;SDS011;2227;47.810;8.810;2023-06-22T07:25:06;9.50;;;5.53;;
4428;SDS011;2227;47.810;8.810;2023-06-22T07:27:45;9.95;;;5.78;;
4428;SDS011;2227;47.810;8.810;2023-06-22T07:30:14;9.05;;;5.57;;
4428;SDS011;2227;47.810;8.810;2023-06-22T07:32:41;10.45;;;5.53;;
4428;SDS011;2227;47.810;8.810;2023-06-22T07:35:08;11.18;;;5.47;;
4428;SDS011;2227;47.810;8.810;2023-06-22T07:37:35;8.52;;;5.18;;
4428;SDS011;2227;47.810;8.810;2023-06-22T07:40:02;8.68;;;5.22;;
4428;SDS011;2227;47.810;8.810;2023-06-22T07:42:32;10.68;;;5.85;;
4428;SDS011;2227;47.810;8.810;2023-06-22T07:44:59;10.02;;;6.03;;
4428;SDS011;2227;47.810;8.810;2023-06-22T07:47:26;8.90;;;5.68;;
4428;SDS011;2227;47.810;8.810;2023-06-22T07:49:55;13.05;;;6.00;;
4428;SDS011;2227;47.810;8.810;2023-06-22T07:52:24;9.45;;;5.90;;
4428;SDS011;2227;47.810;8.810;2023-06-22T07:54:51;10.30;;;5.53;;
4428;SDS011;2227;47.810;8.810;2023-06-22T07:57:19;8.13;;;5.07;;
4428;SDS011;2227;47.810;8.810;2023-06-22T07:59:46;9.20;;;5.38;;
4428;SDS011;2227;47.810;8.810;2023-06-22T08:02:13;8.35;;;5.30;;
4428;SDS011;2227;47.810;8.810;2023-06-22T08:04:40;10.02;;;5.72;;
4428;SDS011;2227;47.810;8.810;2023-06-22T08:07:07;12.05;;;6.60;;
4428;SDS011;2227;47.810;8.810;2023-06-22T08:09:34;9.73;;;5.68;;
4428;SDS011;2227;47.810;8.810;2023-06-22T08:12:01;8.80;;;5.80;;
4428;SDS011;2227;47.810;8.810;2023-06-22T08:14:29;9.90;;;6.03;;
4428;SDS011;2227;47.810;8.810;2023-06-22T08:16:56;10.30;;;5.65;;
4428;SDS011;2227;47.810;8.810;2023-06-22T08:19:23;9.10;;;5.85;;
4428;SDS011;2227;47.810;8.810;2023-06-22T08:21:49;9.02;;;5.28;;
4428;SDS011;2227;47.810;8.810;2023-06-22T08:24:16;9.95;;;5.03;;
4428;SDS011;2227;47.810;8.810;2023-06-22T08:26:43;7.15;;;4.88;;
4428;SDS011;2227;47.810;8.810;2023-06-22T08:29:10;7.82;;;5.10;;
4428;SDS011;2227;47.810;8.810;2023-06-22T08:31:36;11.85;;;5.38;;
4428;SDS011;2227;47.810;8.810;2023-06-22T08:34:03;7.15;;;4.68;;
4428;SDS011;2227;47.810;8.810;2023-06-22T08:36:30;7.53;;;4.82;;
4428;SDS011;2227;47.810;8.810;2023-06-22T08:39:03;12.80;;;6.35;;
4428;SDS011;2227;47.810;8.810;2023-06-22T08:41:30;8.25;;;5.55;;
4428;SDS011;2227;47.810;8.810;2023-06-22T08:43:57;9.25;;;4.78;;
4428;SDS011;2227;47.810;8.810;2023-06-22T08:46:24;11.18;;;6.75;;
4428;SDS011;2227;47.810;8.810;2023-06-22T08:48:58;9.27;;;5.28;;
4428;SDS011;2227;47.810;8.810;2023-06-22T08:51:26;8.18;;;5.40;;
4428;SDS011;2227;47.810;8.810;2023-06-22T08:53:52;9.20;;;5.95;;
4428;SDS011;2227;47.810;8.810;2023-06-22T08:56:19;9.68;;;5.95;;
4428;SDS011;2227;47.810;8.810;2023-06-22T08:58:46;7.50;;;4.82;;
4428;SDS011;2227;47.810;8.810;2023-06-22T09:01:13;8.52;;;5.10;;
4428;SDS011;2227;47.810;8.810;2023-06-22T09:03:41;9.93;;;5.70;;
4428;SDS011;2227;47.810;8.810;2023-06-22T09:06:08;9.73;;;6.03;;
4428;SDS011;2227;47.810;8.810;2023-06-22T09:08:36;11.00;;;6.85;;
4428;SDS011;2227;47.810;8.810;2023-06-22T09:11:02;10.07;;;6.93;;
4428;SDS011;2227;47.810;8.810;2023-06-22T09:13:30;10.48;;;7.18;;
4428;SDS011;2227;47.810;8.810;2023-06-22T09:15:57;11.35;;;7.20;;
4428;SDS011;2227;47.810;8.810;2023-06-22T09:18:24;8.55;;;6.38;;
4428;SDS011;2227;47.810;8.810;2023-06-22T09:20:51;10.77;;;6.85;;
4428;SDS011;2227;47.810;8.810;2023-06-22T09:23:18;13.45;;;6.80;;
4428;SDS011;2227;47.810;8.810;2023-06-22T09:25:44;11.68;;;7.10;;
4428;SDS011;2227;47.810;8.810;2023-06-22T09:28:14;11.38;;;7.22;;
4428;SDS011;2227;47.810;8.810;2023-06-22T09:30:42;10.85;;;7.10;;
4428;SDS011;2227;47.810;8.810;2023-06-22T09:33:10;9.80;;;6.80;;
4428;SDS011;2227;47.810;8.810;2023-06-22T09:35:37;9.98;;;6.10;;
4428;SDS011;2227;47.810;8.810;2023-06-22T09:38:04;11.90;;;5.90;;
4428;SDS011;2227;47.810;8.810;2023-06-22T09:40:31;9.38;;;5.82;;
4428;SDS011;2227;47.810;8.810;2023-06-22T09:43:01;10.60;;;5.53;;
4428;SDS011;2227;47.810;8.810;2023-06-22T09:45:28;7.63;;;4.53;;
4428;SDS011;2227;47.810;8.810;2023-06-22T09:47:55;7.40;;;5.28;;
4428;SDS011;2227;47.810;8.810;2023-06-22T09:50:21;8.85;;;5.68;;
4428;SDS011;2227;47.810;8.810;2023-06-22T09:52:48;9.10;;;5.05;;
4428;SDS011;2227;47.810;8.810;2023-06-22T09:55:21;8.73;;;5.43;;
4428;SDS011;2227;47.810;8.810;2023-06-22T09:57:48;10.10;;;5.82;;
4428;SDS011;2227;47.810;8.810;2023-06-22T10:00:15;10.38;;;5.43;;
4428;SDS011;2227;47.810;8.810;2023-06-22T10:02:43;8.70;;;5.25;;
4428;SDS011;2227;47.810;8.810;2023-06-22T10:05:11;9.38;;;6.25;;
4428;SDS011;2227;47.810;8.810;2023-06-22T10:07:38;10.10;;;6.53;;
4428;SDS011;2227;47.810;8.810;2023-06-22T10:10:09;9.75;;;5.72;;
4428;SDS011;2227;47.810;8.810;2023-06-22T10:12:40;9.32;;;5.25;;
4428;SDS011;2227;47.810;8.810;2023-06-22T10:15:09;10.05;;;5.88;;
4428;SDS011;2227;47.810;8.810;2023-06-22T10:17:36;9.02;;;5.57;;
4428;SDS011;2227;47.810;8.810;2023-06-22T10:20:04;9.70;;;5.53;;
4428;SDS011;2227;47.810;8.810;2023-06-22T10:22:38;10.57;;;6.28;;
4428;SDS011;2227;47.810;8.810;2023-06-22T10:25:06;11.05;;;5.20;;
4428;SDS011;2227;47.810;8.810;2023-06-22T10:27:33;9.38;;;5.22;;
4428;SDS011;2227;47.810;8.810;2023-06-22T10:30:00;8.98;;;5.28;;
4428;SDS011;2227;47.810;8.810;2023-06-22T10:32:27;15.07;;;5.50;;
4428;SDS011;2227;47.810;8.810;2023-06-22T10:34:54;9.55;;;5.38;;
4428;SDS011;2227;47.810;8.810;2023-06-22T10:37:24;9.10;;;5.18;;
4428;SDS011;2227;47.810;8.810;2023-06-22T10:39:51;9.73;;;5.30;;
4428;SDS011;2227;47.810;8.810;2023-06-22T10:42:18;13.23;;;5.47;;
4428;SDS011;2227;47.810;8.810;2023-06-22T10:44:45;7.53;;;4.38;;
4428;SDS011;2227;47.810;8.810;2023-06-22T10:47:11;8.00;;;5.22;;
4428;SDS011;2227;47.810;8.810;2023-06-22T10:49:38;9.20;;;5.28;;
4428;SDS011;2227;47.810;8.810;2023-06-22T10:52:08;8.75;;;4.65;;
4428;SDS011;2227;47.810;8.810;2023-06-22T10:54:35;8.25;;;4.78;;
4428;SDS011;2227;47.810;8.810;2023-06-22T10:57:03;7.38;;;4.57;;
4428;SDS011;2227;47.810;8.810;2023-06-22T10:59:31;9.55;;;5.20;;
4428;SDS011;2227;47.810;8.810;2023-06-22T11:01:58;8.90;;;5.03;;
4428;SDS011;2227;47.810;8.810;2023-06-22T11:04:25;8.80;;;5.10;;
4428;SDS011;2227;47.810;8.810;2023-06-22T11:06:52;10.30;;;5.30;;
4428;SDS011;2227;47.810;8.810;2023-06-22T11:09:19;9.63;;;5.70;;
4428;SDS011;2227;47.810;8.810;2023-06-22T11:11:53;9.77;;;6.28;;
4428;SDS011;2227;47.810;8.810;2023-06-22T11:14:22;11.15;;;6.00;;
4428;SDS011;2227;47.810;8.810;2023-06-22T11:16:49;10.40;;;5.57;;
4428;SDS011;2227;47.810;8.810;2023-06-22T11:19:16;11.00;;;5.72;;
4428;SDS011;2227;47.810;8.810;2023-06-22T11:21:42;11.10;;;6.18;;
4428;SDS011;2227;47.810;8.810;2023-06-22T11:24:09;9.57;;;5.72;;
4428;SDS011;2227;47.810;8.810;2023-06-22T11:26:36;12.85;;;6.72;;
4428;SDS011;2227;47.810;8.810;2023-06-22T11:29:03;9.82;;;6.18;;
4428;SDS011;2227;47.810;8.810;2023-06-22T11:31:32;12.48;;;6.32;;
4428;SDS011;2227;47.810;8.810;2023-06-22T11:34:01;10.63;;;5.57;;
4428;SDS011;2227;47.810;8.810;2023-06-22T11:36:29;10.95;;;5.93;;
4428;SDS011;2227;47.810;8.810;2023-06-22T11:38:59;10.57;;;5.55;;
4428;SDS011;2227;47.810;8.810;2023-06-22T11:41:25;10.02;;;5.65;;
4428;SDS011;2227;47.810;8.810;2023-06-22T11:43:52;9.25;;;5.97;;
4428;SDS011;2227;47.810;8.810;2023-06-22T11:46:19;12.15;;;5.95;;
4428;SDS011;2227;47.810;8.810;2023-06-22T11:48:46;8.50;;;5.45;;
4428;SDS011;2227;47.810;8.810;2023-06-22T11:51:13;10.52;;;5.70;;
4428;SDS011;2227;47.810;8.810;2023-06-22T11:53:40;8.23;;;5.40;;
4428;SDS011;2227;47.810;8.810;2023-06-22T11:56:06;10.02;;;5.10;;
4428;SDS011;2227;47.810;8.810;2023-06-22T11:58:35;9.27;;;5.35;;
4428;SDS011;2227;47.810;8.810;2023-06-22T12:01:02;10.27;;;5.68;;
4428;SDS011;2227;47.810;8.810;2023-06-22T12:03:29;10.30;;;5.95;;
4428;SDS011;2227;47.810;8.810;2023-06-22T12:05:56;8.50;;;5.35;;
4428;SDS011;2227;47.810;8.810;2023-06-22T12:08:24;9.80;;;5.70;;
4428;SDS011;2227;47.810;8.810;2023-06-22T12:10:51;9.40;;;6.05;;
4428;SDS011;2227;47.810;8.810;2023-06-22T12:13:18;10.25;;;5.35;;
4428;SDS011;2227;47.810;8.810;2023-06-22T12:15:45;10.93;;;5.45;;
4428;SDS011;2227;47.810;8.810;2023-06-22T12:18:11;8.35;;;5.72;;
4428;SDS011;2227;47.810;8.810;2023-06-22T12:20:40;9.50;;;4.93;;
4428;SDS011;2227;47.810;8.810;2023-06-22T12:23:07;10.25;;;5.20;;
4428;SDS011;2227;47.810;8.810;2023-06-22T12:25:34;9.32;;;4.82;;
4428;SDS011;2227;47.810;8.810;2023-06-22T12:28:01;8.93;;;5.32;;
4428;SDS011;2227;47.810;8.810;2023-06-22T12:30:27;8.55;;;5.40;;
4428;SDS011;2227;47.810;8.810;2023-06-22T12:32:54;10.95;;;5.88;;
4428;SDS011;2227;47.810;8.810;2023-06-22T12:35:22;8.88;;;5.22;;
4428;SDS011;2227;47.810;8.810;2023-06-22T12:37:49;8.95;;;5.85;;
4428;SDS011;2227;47.810;8.810;2023-06-22T12:40:16;10.57;;;5.97;;
4428;SDS011;2227;47.810;8.810;2023-06-22T12:42:42;9.88;;;6.00;;
4428;SDS011;2227;47.810;8.810;2023-06-22T12:45:10;10.23;;;5.53;;
4428;SDS011;2227;47.810;8.810;2023-06-22T12:47:37;9.55;;;5.22;;
4428;SDS011;2227;47.810;8.810;2023-06-22T12:50:04;9.68;;;5.13;;
4428;SDS011;2227;47.810;8.810;2023-06-22T12:52:31;8.73;;;5.60;;
4428;SDS011;2227;47.810;8.810;2023-06-22T12:54:58;9.07;;;5.97;;
4428;SDS011;2227;47.810;8.810;2023-06-22T12:57:25;9.68;;;5.55;;
4428;SDS011;2227;47.810;8.810;2023-06-22T12:59:52;10.50;;;5.50;;
4428;SDS011;2227;47.810;8.810;2023-06-22T13:02:20;12.18;;;5.72;;
4428;SDS011;2227;47.810;8.810;2023-06-22T13:04:47;8.23;;;5.80;;
4428;SDS011;2227;47.810;8.810;2023-06-22T13:07:13;11.18;;;6.30;;
4428;SDS011;2227;47.810;8.810;2023-06-22T13:09:49;11.65;;;7.03;;
4428;SDS011;2227;47.810;8.810;2023-06-22T13:12:20;8.73;;;5.63;;
4428;SDS011;2227;47.810;8.810;2023-06-22T13:14:47;12.98;;;5.43;;
4428;SDS011;2227;47.810;8.810;2023-06-22T13:17:14;10.70;;;5.03;;
4428;SDS011;2227;47.810;8.810;2023-06-22T13:19:41;8.65;;;5.03;;
4428;SDS011;2227;47.810;8.810;2023-06-22T13:24:55;8.35;;;4.70;;
4428;SDS011;2227;47.810;8.810;2023-06-22T13:27:23;12.00;;;4.65;;
4428;SDS011;2227;47.810;8.810;2023-06-22T13:29:50;9.00;;;5.15;;
4428;SDS011;2227;47.810;8.810;2023-06-22T13:32:34;8.10;;;4.80;;
4428;SDS011;2227;47.810;8.810;2023-06-22T13:35:19;8.90;;;5.13;;
4428;SDS011;2227;47.810;8.810;2023-06-22T13:37:46;8.82;;;4.85;;
4428;SDS011;2227;47.810;8.810;2023-06-22T13:40:30;9.45;;;4.30;;
4428;SDS011;2227;47.810;8.810;2023-06-22T13:43:16;8.70;;;4.57;;
4428;SDS011;2227;47.810;8.810;2023-06-22T13:45:43;8.10;;;4.07;;
4428;SDS011;2227;47.810;8.810;2023-06-22T13:48:10;10.52;;;4.50;;
4428;SDS011;2227;47.810;8.810;2023-06-22T13:50:54;8.82;;;4.35;;
4428;SDS011;2227;47.810;8.810;2023-06-22T13:53:21;8.10;;;4.38;;
4428;SDS011;2227;47.810;8.810;2023-06-22T13:55:47;7.28;;;3.72;;
4428;SDS011;2227;47.810;8.810;2023-06-22T13:58:14;8.73;;;3.97;;
4428;SDS011;2227;47.810;8.810;2023-06-22T14:00:41;7.65;;;4.03;;
4428;SDS011;2227;47.810;8.810;2023-06-22T14:03:08;10.25;;;4.53;;
4428;SDS011;2227;47.810;8.810;2023-06-22T14:05:35;11.07;;;5.18;;
4428;SDS011;2227;47.810;8.810;2023-06-22T14:08:01;9.35;;;4.43;;
4428;SDS011;2227;47.810;8.810;2023-06-22T14:10:34;11.77;;;4.70;;
4428;SDS011;2227;47.810;8.810;2023-06-22T14:13:01;8.00;;;4.45;;
4428;SDS011;2227;47.810;8.810;2023-06-22T14:15:28;9.90;;;5.15;;
4428;SDS011;2227;47.810;8.810;2023-06-22T14:17:54;9.35;;;4.30;;
4428;SDS011;2227;47.810;8.810;2023-06-22T14:20:21;6.28;;;3.53;;
4428;SDS011;2227;47.810;8.810;2023-06-22T14:22:48;6.47;;;3.90;;
4428;SDS011;2227;47.810;8.810;2023-06-22T14:25:15;9.95;;;4.75;;
4428;SDS011;2227;47.810;8.810;2023-06-22T14:27:41;11.95;;;4.97;;
4428;SDS011;2227;47.810;8.810;2023-06-22T14:30:09;8.48;;;4.60;;
4428;SDS011;2227;47.810;8.810;2023-06-22T14:32:36;9.43;;;4.80;;
4428;SDS011;2227;47.810;8.810;2023-06-22T14:35:03;10.25;;;4.53;;
4428;SDS011;2227;47.810;8.810;2023-06-22T14:37:30;9.75;;;4.28;;
4428;SDS011;2227;47.810;8.810;2023-06-22T14:39:57;9.82;;;4.30;;
4428;SDS011;2227;47.810;8.810;2023-06-22T14:42:23;10.88;;;4.85;;
4428;SDS011;2227;47.810;8.810;2023-06-22T14:44:52;8.38;;;4.40;;
4428;SDS011;2227;47.810;8.810;2023-06-22T14:47:19;8.00;;;4.47;;
4428;SDS011;2227;47.810;8.810;2023-06-22T14:49:47;7.32;;;4.55;;
4428;SDS011;2227;47.810;8.810;2023-06-22T14:52:14;8.60;;;4.28;;
4428;SDS011;2227;47.810;8.810;2023-06-22T14:54:41;10.32;;;4.63;;
4428;SDS011;2227;47.810;8.810;2023-06-22T14:57:08;7.20;;;3.80;;
4428;SDS011;2227;47.810;8.810;2023-06-22T14:59:34;10.23;;;4.18;;
4428;SDS011;2227;47.810;8.810;2023-06-22T15:02:01;9.43;;;4.28;;
4428;SDS011;2227;47.810;8.810;2023-06-22T15:04:28;8.35;;;4.65;;
4428;SDS011;2227;47.810;8.810;2023-06-22T15:07:00;10.75;;;4.57;;
4428;SDS011;2227;47.810;8.810;2023-06-22T15:09:27;8.98;;;4.43;;
4428;SDS011;2227;47.810;8.810;2023-06-22T15:11:54;10.07;;;4.35;;
4428;SDS011;2227;47.810;8.810;2023-06-22T15:14:21;9.93;;;4.25;;
4428;SDS011;2227;47.810;8.810;2023-06-22T15:16:48;9.23;;;4.72;;
4428;SDS011;2227;47.810;8.810;2023-06-22T15:19:15;10.20;;;4.80;;
4428;SDS011;2227;47.810;8.810;2023-06-22T15:21:41;8.45;;;4.60;;
4428;SDS011;2227;47.810;8.810;2023-06-22T15:24:09;9.80;;;4.05;;
4428;SDS011;2227;47.810;8.810;2023-06-22T15:26:35;9.75;;;5.05;;
4428;SDS011;2227;47.810;8.810;2023-06-22T15:29:02;10.05;;;5.10;;
4428;SDS011;2227;47.810;8.810;2023-06-22T15:31:29;10.05;;;4.70;;
4428;SDS011;2227;47.810;8.810;2023-06-22T15:33:56;12.38;;;4.80;;
4428;SDS011;2227;47.810;8.810;2023-06-22T15:36:23;8.10;;;4.47;;
4428;SDS011;2227;47.810;8.810;2023-06-22T15:38:50;10.57;;;5.10;;
4428;SDS011;2227;47.810;8.810;2023-06-22T15:41:16;7.93;;;4.65;;
4428;SDS011;2227;47.810;8.810;2023-06-22T15:43:43;8.95;;;4.32;;
4428;SDS011;2227;47.810;8.810;2023-06-22T15:46:10;10.18;;;4.97;;
4428;SDS011;2227;47.810;8.810;2023-06-22T15:48:36;7.43;;;3.75;;
4428;SDS011;2227;47.810;8.810;2023-06-22T15:51:03;9.52;;;4.45;;
4428;SDS011;2227;47.810;8.810;2023-06-22T15:53:30;8.70;;;4.40;;
4428;SDS011;2227;47.810;8.810;2023-06-22T15:55:56;10.80;;;4.68;;
4428;SDS011;2227;47.810;8.810;2023-06-22T15:58:24;10.52;;;4.75;;
4428;SDS011;2227;47.810;8.810;2023-06-22T16:00:51;10.68;;;4.20;;
4428;SDS011;2227;47.810;8.810;2023-06-22T16:03:19;8.77;;;4.57;;
4428;SDS011;2227;47.810;8.810;2023-06-22T16:05:46;7.47;;;4.30;;
4428;SDS011;2227;47.810;8.810;2023-06-22T16:08:12;9.95;;;5.20;;
4428;SDS011;2227;47.810;8.810;2023-06-22T16:10:39;7.10;;;4.78;;
4428;SDS011;2227;47.810;8.810;2023-06-22T16:13:06;6.97;;;4.88;;
4428;SDS011;2227;47.810;8.810;2023-06-22T16:15:33;9.57;;;4.57;;
4428;SDS011;2227;47.810;8.810;2023-06-22T16:18:00;9.52;;;4.65;;
4428;SDS011;2227;47.810;8.810;2023-06-22T16:20:27;9.50;;;4.68;;
4428;SDS011;2227;47.810;8.810;2023-06-22T16:22:54;10.25;;;4.65;;
4428;SDS011;2227;47.810;8.810;2023-06-22T16:25:21;9.18;;;4.70;;
4428;SDS011;2227;47.810;8.810;2023-06-22T16:27:47;10.07;;;4.75;;
4428;SDS011;2227;47.810;8.810;2023-06-22T16:30:14;11.48;;;4.90;;
4428;SDS011;2227;47.810;8.810;2023-06-22T16:32:54;12.32;;;5.05;;
4428;SDS011;2227;47.810;8.810;2023-06-22T16:35:24;9.77;;;5.22;;
4428;SDS011;2227;47.810;8.810;2023-06-22T16:37:57;8.15;;;4.55;;
4428;SDS011;2227;47.810;8.810;2023-06-22T16:40:24;9.23;;;5.22;;
4428;SDS011;2227;47.810;8.810;2023-06-22T16:42:51;11.52;;;5.38;;
4428;SDS011;2227;47.810;8.810;2023-06-22T16:45:18;11.73;;;5.40;;
4428;SDS011;2227;47.810;8.810;2023-06-22T16:47:47;10.48;;;5.50;;
4428;SDS011;2227;47.810;8.810;2023-06-22T16:50:15;11.07;;;4.97;;
4428;SDS011;2227;47.810;8.810;2023-06-22T16:52:42;10.38;;;5.38;;
4428;SDS011;2227;47.810;8.810;2023-06-22T16:55:10;11.40;;;5.20;;
4428;SDS011;2227;47.810;8.810;2023-06-22T16:57:37;10.68;;;5.00;;
4428;SDS011;2227;47.810;8.810;2023-06-22T17:00:04;9.32;;;4.63;;
4428;SDS011;2227;47.810;8.810;2023-06-22T17:02:38;12.68;;;5.28;;
4428;SDS011;2227;47.810;8.810;2023-06-22T17:05:10;9.10;;;4.97;;
4428;SDS011;2227;47.810;8.810;2023-06-22T17:07:38;11.00;;;5.15;;
4428;SDS011;2227;47.810;8.810;2023-06-22T17:10:11;12.23;;;5.03;;
4428;SDS011;2227;47.810;8.810;2023-06-22T17:12:38;9.23;;;4.38;;
4428;SDS011;2227;47.810;8.810;2023-06-22T17:15:06;7.30;;;3.85;;
4428;SDS011;2227;47.810;8.810;2023-06-22T17:17:36;7.57;;;3.58;;
4428;SDS011;2227;47.810;8.810;2023-06-22T17:20:04;5.75;;;3.97;;
4428;SDS011;2227;47.810;8.810;2023-06-22T17:22:32;9.23;;;4.13;;
4428;SDS011;2227;47.810;8.810;2023-06-22T17:25:02;10.45;;;3.97;;
4428;SDS011;2227;47.810;8.810;2023-06-22T17:27:29;8.45;;;4.20;;
4428;SDS011;2227;47.810;8.810;2023-06-22T17:30:08;9.07;;;4.25;;
4428;SDS011;2227;47.810;8.810;2023-06-22T17:32:36;7.72;;;4.10;;
4428;SDS011;2227;47.810;8.810;2023-06-22T17:35:03;6.65;;;3.78;;
4428;SDS011;2227;47.810;8.810;2023-06-22T17:37:36;8.77;;;3.85;;
4428;SDS011;2227;47.810;8.810;2023-06-22T17:40:13;5.82;;;4.35;;
4428;SDS011;2227;47.810;8.810;2023-06-22T17:42:42;12.18;;;4.60;;
4428;SDS011;2227;47.810;8.810;2023-06-22T17:45:30;8.05;;;4.47;;
4428;SDS011;2227;47.810;8.810;2023-06-22T17:47:56;8.20;;;4.80;;
4428;SDS011;2227;47.810;8.810;2023-06-22T17:50:23;9.27;;;4.80;;
4428;SDS011;2227;47.810;8.810;2023-06-22T17:52:54;10.93;;;4.93;;
4428;SDS011;2227;47.810;8.810;2023-06-22T17:55:26;8.20;;;4.55;;
4428;SDS011;2227;47.810;8.810;2023-06-22T17:57:55;13.18;;;3.95;;
4428;SDS011;2227;47.810;8.810;2023-06-22T18:00:24;6.63;;;3.28;;
4428;SDS011;2227;47.810;8.810;2023-06-22T18:02:51;8.90;;;3.42;;
4428;SDS011;2227;47.810;8.810;2023-06-22T18:08:15;7.60;;;3.40;;
4428;SDS011;2227;47.810;8.810;2023-06-22T18:10:45;6.07;;;3.40;;
4428;SDS011;2227;47.810;8.810;2023-06-22T18:13:13;7.13;;;3.20;;
4428;SDS011;2227;47.810;8.810;2023-06-22T18:15:41;5.80;;;3.05;;
4428;SDS011;2227;47.810;8.810;2023-06-22T18:18:08;6.78;;;3.13;;
4428;SDS011;2227;47.810;8.810;2023-06-22T18:20:36;6.75;;;3.13;;
4428;SDS011;2227;47.810;8.810;2023-06-22T18:23:07;6.22;;;3.45;;
4428;SDS011;2227;47.810;8.810;2023-06-22T18:25:41;7.03;;;3.58;;
4428;SDS011;2227;47.810;8.810;2023-06-22T18:28:11;6.35;;;3.10;;
4428;SDS011;2227;47.810;8.810;2023-06-22T18:30:40;7.43;;;3.13;;
4428;SDS011;2227;47.810;8.810;2023-06-22T18:33:08;8.88;;;3.42;;
4428;SDS011;2227;47.810;8.810;2023-06-22T18:35:36;6.53;;;3.35;;
4428;SDS011;2227;47.810;8.810;2023-06-22T18:38:04;7.88;;;3.20;;
4428;SDS011;2227;47.810;8.810;2023-06-22T18:40:32;9.85;;;3.35;;
4428;SDS011;2227;47.810;8.810;2023-06-22T18:42:59;7.60;;;3.50;;
4428;SDS011;2227;47.810;8.810;2023-06-22T18:45:27;9.30;;;3.50;;
4428;SDS011;2227;47.810;8.810;2023-06-22T18:48:00;6.53;;;3.00;;
4428;SDS011;2227;47.810;8.810;2023-06-22T18:50:35;8.88;;;3.13;;
4428;SDS011;2227;47.810;8.810;2023-06-22T18:53:03;5.78;;;2.85;;
4428;SDS011;2227;47.810;8.810;2023-06-22T18:55:31;6.78;;;3.10;;
4428;SDS011;2227;47.810;8.810;2023-06-22T18:58:15;7.18;;;3.05;;
4428;SDS011;2227;47.810;8.810;2023-06-22T19:00:45;6.93;;;2.95;;
4428;SDS011;2227;47.810;8.810;2023-06-22T19:03:21;5.78;;;2.95;;
4428;SDS011;2227;47.810;8.810;2023-06-22T19:08:22;5.22;;;2.30;;
4428;SDS011;2227;47.810;8.810;2023-06-22T19:10:50;7.10;;;2.80;;
4428;SDS011;2227;47.810;8.810;2023-06-22T19:13:24;5.97;;;2.92;;